sensor_id;sensor_type;location;lat;lon;timestamp;pressure;altitude;pressure_sealevel;temperature;humidity
25638;BME280;13496;51.040;13.680;2023-03-19T00:00:04;99619.16;;;18.09;53.29
25638;BME280;13496;51.040;13.680;2023-03-19T00:05:07;99617.16;;;18.11;52.81
25638;BME280;13496;51.040;13.680;2023-03-19T00:10:09;99622.41;;;18.11;52.88
25638;BME280;13496;51.040;13.680;2023-03-19T00:15:11;99627.66;;;18.11;53.12
25638;BME280;13496;51.040;13.680;2023-03-19T00:20:14;99623.44;;;18.10;52.80
25638;BME280;13496;51.040;13.680;2023-03-19T00:25:16;99621.78;;;18.09;53.14
25638;BME280;13496;51.040;13.680;2023-03-19T00:30:18;99628.84;;;18.08;53.04
25638;BME280;13496;51.040;13.680;2023-03-19T00:35:19;99611.47;;;18.07;53.08
25638;BME280;13496;51.040;13.680;2023-03-19T00:40:22;99609.88;;;18.06;53.12
25638;BME280;13496;51.040;13.680;2023-03-19T00:45:24;99611.84;;;18.04;52.80
25638;BME280;13496;51.040;13.680;2023-03-19T00:50:25;99609.06;;;18.06;53.03
25638;BME280;13496;51.040;13.680;2023-03-19T00:55:27;99615.91;;;18.07;52.89
25638;BME280;13496;51.040;13.680;2023-03-19T01:00:29;99629.63;;;18.02;53.19
25638;BME280;13496;51.040;13.680;2023-03-19T01:05:31;99624.53;;;18.01;52.75
25638;BME280;13496;51.040;13.680;2023-03-19T01:10:33;99619.47;;;17.99;53.02
25638;BME280;13496;51.040;13.680;2023-03-19T01:15:41;99614.41;;;17.98;53.15
25638;BME280;13496;51.040;13.680;2023-03-19T01:20:43;99606.53;;;17.98;52.95
25638;BME280;13496;51.040;13.680;2023-03-19T01:25:45;99610.97;;;17.97;52.83
25638;BME280;13496;51.040;13.680;2023-03-19T01:30:47;99606.53;;;17.98;53.05
25638;BME280;13496;51.040;13.680;2023-03-19T01:36:24;99601.47;;;17.96;52.80
25638;BME280;13496;51.040;13.680;2023-03-19T01:41:52;99607.75;;;17.95;52.97
25638;BME280;13496;51.040;13.680;2023-03-19T01:47:27;99595.41;;;17.96;53.07
25638;BME280;13496;51.040;13.680;2023-03-19T01:52:45;99589.53;;;17.94;53.07
25638;BME280;13496;51.040;13.680;2023-03-19T01:57:57;99610.09;;;17.90;52.75
25638;BME280;13496;51.040;13.680;2023-03-19T02:03:18;99601.41;;;17.89;53.00
25638;BME280;13496;51.040;13.680;2023-03-19T02:08:34;99609.91;;;17.92;53.04
25638;BME280;13496;51.040;13.680;2023-03-19T02:13:36;99605.03;;;17.88;53.07
25638;BME280;13496;51.040;13.680;2023-03-19T02:18:38;99601.59;;;17.88;52.73
25638;BME280;13496;51.040;13.680;2023-03-19T02:23:50;99590.31;;;17.87;52.83
25638;BME280;13496;51.040;13.680;2023-03-19T02:28:59;99586.03;;;17.86;52.78
25638;BME280;13496;51.040;13.680;2023-03-19T02:39:33;99598.34;;;17.86;52.96
25638;BME280;13496;51.040;13.680;2023-03-19T02:44:36;99602.78;;;17.85;52.79
25638;BME280;13496;51.040;13.680;2023-03-19T02:49:38;99602.13;;;17.83;52.93
25638;BME280;13496;51.040;13.680;2023-03-19T02:54:40;99606.78;;;17.81;52.76
25638;BME280;13496;51.040;13.680;2023-03-19T02:59:41;99597.09;;;17.82;53.03
25638;BME280;13496;51.040;13.680;2023-03-19T03:04:43;99605.78;;;17.82;52.74
25638;BME280;13496;51.040;13.680;2023-03-19T03:09:45;99616.63;;;17.79;52.95
25638;BME280;13496;51.040;13.680;2023-03-19T03:14:47;99634.84;;;17.81;53.05
25638;BME280;13496;51.040;13.680;2023-03-19T03:19:49;99640.91;;;17.81;53.03
25638;BME280;13496;51.040;13.680;2023-03-19T03:24:51;99628.13;;;17.78;53.04
25638;BME280;13496;51.040;13.680;2023-03-19T03:29:53;99630.16;;;17.76;53.01
25638;BME280;13496;51.040;13.680;2023-03-19T03:34:54;99629.16;;;17.77;53.09
25638;BME280;13496;51.040;13.680;2023-03-19T03:39:56;99624.91;;;17.76;53.02
25638;BME280;13496;51.040;13.680;2023-03-19T03:44:58;99623.25;;;17.75;52.81
25638;BME280;13496;51.040;13.680;2023-03-19T03:50:00;99625.88;;;17.75;52.71
25638;BME280;13496;51.040;13.680;2023-03-19T03:55:04;99632.09;;;17.74;52.96
25638;BME280;13496;51.040;13.680;2023-03-19T04:00:07;99629.69;;;17.73;53.11
25638;BME280;13496;51.040;13.680;2023-03-19T04:05:15;99629.84;;;17.71;52.86
25638;BME280;13496;51.040;13.680;2023-03-19T04:10:17;99626.41;;;17.71;53.00
25638;BME280;13496;51.040;13.680;2023-03-19T04:15:19;99624.00;;;17.69;52.86
25638;BME280;13496;51.040;13.680;2023-03-19T04:20:23;99620.53;;;17.69;52.95
25638;BME280;13496;51.040;13.680;2023-03-19T04:25:25;99612.84;;;17.67;52.85
25638;BME280;13496;51.040;13.680;2023-03-19T04:30:27;99617.91;;;17.69;52.93
25638;BME280;13496;51.040;13.680;2023-03-19T04:35:30;99620.72;;;17.67;52.82
25638;BME280;13496;51.040;13.680;2023-03-19T04:40:32;99625.97;;;17.67;52.91
25638;BME280;13496;51.040;13.680;2023-03-19T04:45:34;99625.97;;;17.67;52.68
25638;BME280;13496;51.040;13.680;2023-03-19T04:50:36;99625.97;;;17.67;53.01
25638;BME280;13496;51.040;13.680;2023-03-19T04:55:40;99620.72;;;17.67;52.43
25638;BME280;13496;51.040;13.680;2023-03-19T05:00:48;99626.16;;;17.65;52.93
25638;BME280;13496;51.040;13.680;2023-03-19T05:05:55;99631.59;;;17.64;52.76
25638;BME280;13496;51.040;13.680;2023-03-19T05:10:57;99632.59;;;17.63;52.81
25638;BME280;13496;51.040;13.680;2023-03-19T05:16:00;99629.97;;;17.63;52.75
25638;BME280;13496;51.040;13.680;2023-03-19T05:21:02;99636.22;;;17.62;53.00
25638;BME280;13496;51.040;13.680;2023-03-19T05:26:06;99632.78;;;17.61;52.65
25638;BME280;13496;51.040;13.680;2023-03-19T05:31:37;99637.19;;;17.61;52.66
25638;BME280;13496;51.040;13.680;2023-03-19T05:36:38;99629.16;;;17.62;52.88
25638;BME280;13496;51.040;13.680;2023-03-19T05:41:46;99629.97;;;17.63;52.75
25638;BME280;13496;51.040;13.680;2023-03-19T05:46:53;99635.22;;;17.63;52.52
25638;BME280;13496;51.040;13.680;2023-03-19T05:51:57;99648.34;;;17.63;52.73
25638;BME280;13496;51.040;13.680;2023-03-19T05:56:59;99645.72;;;17.63;52.49
25638;BME280;13496;51.040;13.680;2023-03-19T06:02:16;99649.94;;;17.64;52.49
25638;BME280;13496;51.040;13.680;2023-03-19T06:07:18;99657.00;;;17.63;52.66
25638;BME280;13496;51.040;13.680;2023-03-19T06:12:20;99658.63;;;17.64;52.29
25638;BME280;13496;51.040;13.680;2023-03-19T06:17:49;99663.06;;;17.64;52.34
25638;BME280;13496;51.040;13.680;2023-03-19T06:22:52;99653.22;;;17.66;52.53
25638;BME280;13496;51.040;13.680;2023-03-19T06:27:56;99656.44;;;17.68;52.65
25638;BME280;13496;51.040;13.680;2023-03-19T06:33:02;99658.25;;;17.67;52.51
25638;BME280;13496;51.040;13.680;2023-03-19T06:38:07;99651.03;;;17.70;52.47
25638;BME280;13496;51.040;13.680;2023-03-19T06:43:08;99658.72;;;17.71;52.17
25638;BME280;13496;51.040;13.680;2023-03-19T06:48:10;99650.66;;;17.73;52.33
25638;BME280;13496;51.040;13.680;2023-03-19T06:53:13;99661.16;;;17.73;52.34
25638;BME280;13496;51.040;13.680;2023-03-19T06:58:14;99670.50;;;17.75;52.60
25638;BME280;13496;51.040;13.680;2023-03-19T07:03:16;99667.69;;;17.77;52.27
25638;BME280;13496;51.040;13.680;2023-03-19T07:08:18;99675.38;;;17.78;52.10
25638;BME280;13496;51.040;13.680;2023-03-19T07:13:20;99676.81;;;17.81;52.14
25638;BME280;13496;51.040;13.680;2023-03-19T07:18:21;99678.25;;;17.83;52.21
25638;BME280;13496;51.040;13.680;2023-03-19T07:23:23;99688.38;;;17.86;51.91
25638;BME280;13496;51.040;13.680;2023-03-19T07:28:25;99687.22;;;17.89;52.08
25638;BME280;13496;51.040;13.680;2023-03-19T07:33:26;99695.09;;;17.89;52.06
25638;BME280;13496;51.040;13.680;2023-03-19T07:38:28;99691.47;;;17.90;51.86
25638;BME280;13496;51.040;13.680;2023-03-19T07:43:30;99685.66;;;17.95;51.62
25638;BME280;13496;51.040;13.680;2023-03-19T07:48:31;99691.53;;;17.97;51.73
25638;BME280;13496;51.040;13.680;2023-03-19T07:53:33;99697.44;;;17.99;51.67
25638;BME280;13496;51.040;13.680;2023-03-19T07:58:35;99681.69;;;17.99;51.84
25638;BME280;13496;51.040;13.680;2023-03-19T08:03:36;99684.09;;;18.00;51.89
25638;BME280;13496;51.040;13.680;2023-03-19T08:08:39;99677.84;;;18.01;51.90
25638;BME280;13496;51.040;13.680;2023-03-19T08:13:41;99687.16;;;18.04;52.05
25638;BME280;13496;51.040;13.680;2023-03-19T08:18:43;99697.31;;;18.07;51.88
25638;BME280;13496;51.040;13.680;2023-03-19T08:23:44;99687.41;;;18.09;51.74
25638;BME280;13496;51.040;13.680;2023-03-19T08:28:46;99683.81;;;18.10;51.68
25638;BME280;13496;51.040;13.680;2023-03-19T08:33:48;99686.25;;;18.11;51.62
25638;BME280;13496;51.040;13.680;2023-03-19T08:38:49;99695.56;;;18.14;51.73
25638;BME280;13496;51.040;13.680;2023-03-19T08:43:55;99702.44;;;18.15;51.67
25638;BME280;13496;51.040;13.680;2023-03-19T08:48:56;99696.81;;;18.18;51.30
25638;BME280;13496;51.040;13.680;2023-03-19T08:53:58;99694.81;;;18.20;51.39
25638;BME280;13496;51.040;13.680;2023-03-19T08:58:59;99692.63;;;18.24;51.11
25638;BME280;13496;51.040;13.680;2023-03-19T09:04:01;99702.31;;;18.23;51.48
25638;BME280;13496;51.040;13.680;2023-03-19T09:09:03;99698.31;;;18.27;51.60
25638;BME280;13496;51.040;13.680;2023-03-19T09:14:04;99698.13;;;18.29;51.31
25638;BME280;13496;51.040;13.680;2023-03-19T09:19:06;99704.63;;;18.33;51.09
25638;BME280;13496;51.040;13.680;2023-03-19T09:24:08;99702.81;;;18.33;51.65
25638;BME280;13496;51.040;13.680;2023-03-19T09:29:10;99707.06;;;18.34;51.62
25638;BME280;13496;51.040;13.680;2023-03-19T09:34:12;99703.84;;;18.32;51.67
25638;BME280;13496;51.040;13.680;2023-03-19T09:39:14;99699.56;;;18.31;51.64
25638;BME280;13496;51.040;13.680;2023-03-19T09:44:28;99694.94;;;18.33;51.78
25638;BME280;13496;51.040;13.680;2023-03-19T09:49:35;99692.75;;;18.37;51.46
25638;BME280;13496;51.040;13.680;2023-03-19T09:54:44;99690.13;;;18.37;51.71
25638;BME280;13496;51.040;13.680;2023-03-19T09:59:47;99689.56;;;18.42;51.46
25638;BME280;13496;51.040;13.680;2023-03-19T10:15:39;99673.28;;;18.53;51.14
25638;BME280;13496;51.040;13.680;2023-03-19T10:20:57;99679.84;;;18.63;51.10
25638;BME280;13496;51.040;13.680;2023-03-19T10:26:04;99677.97;;;18.79;50.56
25638;BME280;13496;51.040;13.680;2023-03-19T10:31:36;99677.38;;;18.83;50.57
25638;BME280;13496;51.040;13.680;2023-03-19T10:36:40;99682.47;;;18.85;50.82
25638;BME280;13496;51.040;13.680;2023-03-19T10:47:12;99684.72;;;18.88;50.57
25638;BME280;13496;51.040;13.680;2023-03-19T10:52:17;99676.63;;;18.90;50.93
25638;BME280;13496;51.040;13.680;2023-03-19T10:57:25;99665.94;;;18.91;51.01
25638;BME280;13496;51.040;13.680;2023-03-19T11:02:29;99678.69;;;18.94;50.91
25638;BME280;13496;51.040;13.680;2023-03-19T11:07:33;99668.00;;;18.96;50.72
25638;BME280;13496;51.040;13.680;2023-03-19T11:12:36;99669.66;;;19.03;50.97
25638;BME280;13496;51.040;13.680;2023-03-19T11:17:46;99669.50;;;19.12;50.39
25638;BME280;13496;51.040;13.680;2023-03-19T11:22:49;99671.75;;;19.15;50.60
25638;BME280;13496;51.040;13.680;2023-03-19T11:28:15;99657.81;;;19.21;50.63
25638;BME280;13496;51.040;13.680;2023-03-19T11:39:02;99663.94;;;19.34;50.28
25638;BME280;13496;51.040;13.680;2023-03-19T11:44:25;99657.53;;;19.44;50.11
25638;BME280;13496;51.040;13.680;2023-03-19T11:49:42;99657.75;;;19.49;50.29
25638;BME280;13496;51.040;13.680;2023-03-19T11:54:59;99660.19;;;19.57;49.98
25638;BME280;13496;51.040;13.680;2023-03-19T12:00:30;99645.03;;;19.59;49.83
25638;BME280;13496;51.040;13.680;2023-03-19T12:05:55;99654.19;;;19.63;50.09
25638;BME280;13496;51.040;13.680;2023-03-19T12:11:11;99655.41;;;19.67;49.82
25638;BME280;13496;51.040;13.680;2023-03-19T12:33:37;99654.22;;;19.70;50.20
25638;BME280;13496;51.040;13.680;2023-03-19T12:38:45;99646.88;;;19.65;50.21
25638;BME280;13496;51.040;13.680;2023-03-19T12:54:26;99641.72;;;19.85;49.71
25638;BME280;13496;51.040;13.680;2023-03-19T12:59:34;99647.78;;;19.86;49.82
25638;BME280;13496;51.040;13.680;2023-03-19T13:04:42;99639.69;;;19.80;50.06
25638;BME280;13496;51.040;13.680;2023-03-19T13:09:58;99641.28;;;19.81;50.06
25638;BME280;13496;51.040;13.680;2023-03-19T13:15:35;99646.97;;;19.85;50.43
25638;BME280;13496;51.040;13.680;2023-03-19T13:20:56;99646.16;;;19.85;50.31
25638;BME280;13496;51.040;13.680;2023-03-19T13:26:07;99644.53;;;19.83;50.51
25638;BME280;13496;51.040;13.680;2023-03-19T13:31:26;99646.16;;;19.85;50.52
25638;BME280;13496;51.040;13.680;2023-03-19T13:36:29;99640.91;;;19.85;50.29
25638;BME280;13496;51.040;13.680;2023-03-19T13:46:39;99639.69;;;19.80;50.42
25638;BME280;13496;51.040;13.680;2023-03-19T13:51:41;99637.44;;;19.77;50.58
25638;BME280;13496;51.040;13.680;2023-03-19T14:07:25;99642.09;;;19.82;50.91
25638;BME280;13496;51.040;13.680;2023-03-19T14:12:33;99639.06;;;19.78;50.78
25638;BME280;13496;51.040;13.680;2023-03-19T14:17:44;99646.56;;;19.81;50.63
25638;BME280;13496;51.040;13.680;2023-03-19T14:23:18;99638.03;;;19.79;51.02
25638;BME280;13496;51.040;13.680;2023-03-19T14:33:50;99625.50;;;19.81;51.00
25638;BME280;13496;51.040;13.680;2023-03-19T14:38:58;99627.53;;;19.86;50.59
25638;BME280;13496;51.040;13.680;2023-03-19T14:59:59;99631.56;;;19.82;51.19
25638;BME280;13496;51.040;13.680;2023-03-19T15:05:23;99639.47;;;19.82;51.33
25638;BME280;13496;51.040;13.680;2023-03-19T15:10:27;99637.63;;;19.82;51.31
25638;BME280;13496;51.040;13.680;2023-03-19T15:15:40;99642.50;;;19.79;51.44
25638;BME280;13496;51.040;13.680;2023-03-19T15:20:54;99645.34;;;19.77;51.14
25638;BME280;13496;51.040;13.680;2023-03-19T15:25:59;99643.72;;;19.76;51.51
25638;BME280;13496;51.040;13.680;2023-03-19T15:31:04;99657.88;;;19.75;51.46
25638;BME280;13496;51.040;13.680;2023-03-19T15:41:13;99662.53;;;19.73;51.26
25638;BME280;13496;51.040;13.680;2023-03-19T15:46:18;99660.09;;;19.72;51.60
25638;BME280;13496;51.040;13.680;2023-03-19T15:51:24;99667.97;;;19.72;51.55
25638;BME280;13496;51.040;13.680;2023-03-19T15:56:27;99677.69;;;19.71;51.40
25638;BME280;13496;51.040;13.680;2023-03-19T16:01:30;99675.06;;;19.71;51.56
25638;BME280;13496;51.040;13.680;2023-03-19T16:06:37;99683.97;;;19.70;51.38
25638;BME280;13496;51.040;13.680;2023-03-19T16:11:44;99695.53;;;19.69;51.50
25638;BME280;13496;51.040;13.680;2023-03-19T16:16:46;99696.34;;;19.70;51.81
25638;BME280;13496;51.040;13.680;2023-03-19T16:21:49;99695.53;;;19.69;51.54
25638;BME280;13496;51.040;13.680;2023-03-19T16:26:51;99707.03;;;19.68;51.86
25638;BME280;13496;51.040;13.680;2023-03-19T16:31:59;99707.03;;;19.68;51.86
25638;BME280;13496;51.040;13.680;2023-03-19T16:37:32;99717.16;;;19.65;51.88
25638;BME280;13496;51.040;13.680;2023-03-19T16:47:35;99729.72;;;19.63;51.91
25638;BME280;13496;51.040;13.680;2023-03-19T16:52:39;99745.28;;;19.64;52.09
25638;BME280;13496;51.040;13.680;2023-03-19T16:57:41;99740.38;;;19.61;52.00
25638;BME280;13496;51.040;13.680;2023-03-19T17:02:43;99746.50;;;19.62;51.73
25638;BME280;13496;51.040;13.680;2023-03-19T17:07:45;99745.84;;;19.59;52.24
25638;BME280;13496;51.040;13.680;2023-03-19T17:12:49;99746.88;;;19.58;52.10
25638;BME280;13496;51.040;13.680;2023-03-19T17:17:52;99749.69;;;19.57;52.42
25638;BME280;13496;51.040;13.680;2023-03-19T17:22:55;99750.06;;;19.54;52.02
25638;BME280;13496;51.040;13.680;2023-03-19T17:27:56;99753.31;;;19.56;52.23
25638;BME280;13496;51.040;13.680;2023-03-19T17:32:59;99750.69;;;19.56;52.23
25638;BME280;13496;51.040;13.680;2023-03-19T17:38:00;99752.69;;;19.54;52.02
25638;BME280;13496;51.040;13.680;2023-03-19T17:43:04;99758.38;;;19.51;52.23
25638;BME280;13496;51.040;13.680;2023-03-19T17:48:20;99762.00;;;19.50;52.28
25638;BME280;13496;51.040;13.680;2023-03-19T17:53:23;99762.00;;;19.50;52.30
25638;BME280;13496;51.040;13.680;2023-03-19T17:58:25;99755.91;;;19.49;52.39
25638;BME280;13496;51.040;13.680;2023-03-19T18:03:30;99759.56;;;19.48;52.08
25638;BME280;13496;51.040;13.680;2023-03-19T18:08:32;99766.66;;;19.48;52.32
25638;BME280;13496;51.040;13.680;2023-03-19T18:13:34;99761.38;;;19.48;52.54
25638;BME280;13496;51.040;13.680;2023-03-19T18:18:36;99771.91;;;19.48;52.38
25638;BME280;13496;51.040;13.680;2023-03-19T18:23:38;99768.66;;;19.46;52.54
25638;BME280;13496;51.040;13.680;2023-03-19T18:28:39;99779.97;;;19.46;52.60
25638;BME280;13496;51.040;13.680;2023-03-19T18:33:44;99779.16;;;19.46;52.21
25638;BME280;13496;51.040;13.680;2023-03-19T18:38:48;99778.38;;;19.45;52.34
25638;BME280;13496;51.040;13.680;2023-03-19T18:43:50;99780.38;;;19.43;52.27
25638;BME280;13496;51.040;13.680;2023-03-19T18:48:58;99777.94;;;19.42;52.88
25638;BME280;13496;51.040;13.680;2023-03-19T18:54:01;99773.69;;;19.41;52.68
25638;BME280;13496;51.040;13.680;2023-03-19T18:59:10;99784.38;;;19.39;52.94
25638;BME280;13496;51.040;13.680;2023-03-19T19:04:16;99787.84;;;19.40;52.91
25638;BME280;13496;51.040;13.680;2023-03-19T19:09:17;99785.59;;;19.37;52.92
25638;BME280;13496;51.040;13.680;2023-03-19T19:14:21;99790.88;;;19.37;52.70
25638;BME280;13496;51.040;13.680;2023-03-19T19:19:25;99793.50;;;19.37;53.04
25638;BME280;13496;51.040;13.680;2023-03-19T19:24:27;99797.13;;;19.36;52.73
25638;BME280;13496;51.040;13.680;2023-03-19T19:29:29;99792.88;;;19.34;52.79
25638;BME280;13496;51.040;13.680;2023-03-19T19:34:31;99797.31;;;19.34;53.02
25638;BME280;13496;51.040;13.680;2023-03-19T19:39:33;99800.16;;;19.32;52.65
25638;BME280;13496;51.040;13.680;2023-03-19T19:44:34;99794.88;;;19.32;52.64
25638;BME280;13496;51.040;13.680;2023-03-19T19:49:37;99800.31;;;19.31;52.92
25638;BME280;13496;51.040;13.680;2023-03-19T19:54:39;99810.84;;;19.31;52.94
25638;BME280;13496;51.040;13.680;2023-03-19T19:59:41;99807.41;;;19.30;53.00
25638;BME280;13496;51.040;13.680;2023-03-19T20:04:43;99802.16;;;19.30;52.87
25638;BME280;13496;51.040;13.680;2023-03-19T20:09:44;99806.81;;;19.28;52.89
25638;BME280;13496;51.040;13.680;2023-03-19T20:14:48;99809.44;;;19.28;53.26
25638;BME280;13496;51.040;13.680;2023-03-19T20:19:50;99814.69;;;19.28;53.25
25638;BME280;13496;51.040;13.680;2023-03-19T20:24:52;99821.75;;;19.28;53.24
25638;BME280;13496;51.040;13.680;2023-03-19T20:29:54;99822.75;;;19.27;53.17
25638;BME280;13496;51.040;13.680;2023-03-19T20:34:56;99827.22;;;19.26;53.08
25638;BME280;13496;51.040;13.680;2023-03-19T20:39:58;99824.56;;;19.26;52.70
25638;BME280;13496;51.040;13.680;2023-03-19T20:45:00;99818.69;;;19.24;53.23
25638;BME280;13496;51.040;13.680;2023-03-19T20:50:02;99819.69;;;19.23;53.33
25638;BME280;13496;51.040;13.680;2023-03-19T20:55:05;99830.22;;;19.23;53.27
25638;BME280;13496;51.040;13.680;2023-03-19T21:00:21;99827.78;;;19.22;52.97
25638;BME280;13496;51.040;13.680;2023-03-19T21:05:30;99827.78;;;19.22;52.97
25638;BME280;13496;51.040;13.680;2023-03-19T21:10:37;99822.69;;;19.20;53.38
25638;BME280;13496;51.040;13.680;2023-03-19T21:15:40;99821.06;;;19.19;53.48
25638;BME280;13496;51.040;13.680;2023-03-19T21:20:45;99822.09;;;19.18;53.12
25638;BME280;13496;51.040;13.680;2023-03-19T21:25:48;99821.28;;;19.18;53.37
25638;BME280;13496;51.040;13.680;2023-03-19T21:30:50;99812.59;;;19.17;53.34
25638;BME280;13496;51.040;13.680;2023-03-19T21:35:53;99821.44;;;19.16;53.17
25638;BME280;13496;51.040;13.680;2023-03-19T21:40:58;99819.84;;;19.15;53.26
25638;BME280;13496;51.040;13.680;2023-03-19T21:46:01;99813.13;;;19.13;53.32
25638;BME280;13496;51.040;13.680;2023-03-19T21:51:03;99815.97;;;19.11;53.33
25638;BME280;13496;51.040;13.680;2023-03-19T21:56:05;99820.22;;;19.12;53.29
25638;BME280;13496;51.040;13.680;2023-03-19T22:01:20;99817.94;;;19.09;53.37
25638;BME280;13496;51.040;13.680;2023-03-19T22:06:24;99817.34;;;19.07;53.38
25638;BME280;13496;51.040;13.680;2023-03-19T22:11:29;99812.09;;;19.07;53.27
25638;BME280;13496;51.040;13.680;2023-03-19T22:16:32;99822.59;;;19.07;53.37
25638;BME280;13496;51.040;13.680;2023-03-19T22:21:34;99818.53;;;19.04;53.66
25638;BME280;13496;51.040;13.680;2023-03-19T22:26:40;99822.97;;;19.04;53.30
25638;BME280;13496;51.040;13.680;2023-03-19T22:31:42;99829.25;;;19.03;53.29
25638;BME280;13496;51.040;13.680;2023-03-19T22:36:44;99828.44;;;19.02;53.39
25638;BME280;13496;51.040;13.680;2023-03-19T22:41:47;99825.16;;;19.00;53.55
25638;BME280;13496;51.040;13.680;2023-03-19T22:46:49;99830.63;;;18.99;53.31
25638;BME280;13496;51.040;13.680;2023-03-19T22:51:51;99821.09;;;18.98;53.45
25638;BME280;13496;51.040;13.680;2023-03-19T22:56:52;99824.53;;;18.98;52.95
25638;BME280;13496;51.040;13.680;2023-03-19T23:01:54;99814.22;;;18.97;53.54
25638;BME280;13496;51.040;13.680;2023-03-19T23:06:59;99818.66;;;18.96;53.57
25638;BME280;13496;51.040;13.680;2023-03-19T23:12:01;99822.91;;;18.97;53.49
25638;BME280;13496;51.040;13.680;2023-03-19T23:17:13;99817.03;;;18.95;53.50
25638;BME280;13496;51.040;13.680;2023-03-19T23:22:15;99814.59;;;18.94;53.28
25638;BME280;13496;51.040;13.680;2023-03-19T23:27:23;99817.22;;;18.94;53.32
25638;BME280;13496;51.040;13.680;2023-03-19T23:32:25;99817.22;;;18.94;53.25
25638;BME280;13496;51.040;13.680;2023-03-19T23:37:27;99809.53;;;18.92;53.49
25638;BME280;13496;51.040;13.680;2023-03-19T23:42:30;99813.97;;;18.92;53.65
25638;BME280;13496;51.040;13.680;2023-03-19T23:47:32;99812.34;;;18.91;53.50
25638;BME280;13496;51.040;13.680;2023-03-19T23:52:34;99815.97;;;18.90;53.32
25638;BME280;13496;51.040;13.680;2023-03-19T23:57:36;99821.22;;;18.90;53.31
